Time;durP1;ratioP1;P1;durP2;ratioP2;P2;SDS_P1;SDS_P2;PMS_P1;PMS_P2;Temp;Humidity;BMP_temperature;BMP_pressure;BME280_temperature;BME280_humidity;BME280_pressure;Samples;Min_cycle;Max_cycle;Signal;HPM_P1;HPM_P2
2022/01/24 00:01:32;;;;;;;9.38;6.60;;;1.80;99.90;;;;;;1821580;77;21140;-79
2022/01/24 00:04:02;;;;;;;9.00;6.50;;;1.70;99.90;;;;;;1851545;77;21482;-78
2022/01/24 00:06:30;;;;;;;8.85;6.28;;;1.70;99.90;;;;;;1850357;77;21184;-78
2022/01/24 00:08:58;;;;;;;14.87;6.78;;;1.60;99.90;;;;;;1850553;76;21102;-78
2022/01/24 00:11:36;;;;;;;9.73;5.72;;;1.60;99.90;;;;;;1852401;76;21086;-78
2022/01/24 00:27:27;;;;;;;8.18;6.10;;;1.40;99.90;;;;;;1850698;76;21098;-80
2022/01/24 00:29:54;;;;;;;11.22;6.12;;;1.20;99.90;;;;;;1850740;77;21226;-79
2022/01/24 00:32:22;;;;;;;10.78;6.95;;;1.20;99.90;;;;;;1851659;77;21163;-78
2022/01/24 00:34:50;;;;;;;11.68;6.78;;;1.20;99.90;;;;;;1812108;77;21235;-79
2022/01/24 00:37:17;;;;;;;7.92;6.00;;;1.20;99.90;;;;;;1853497;76;21476;-78
2022/01/24 00:39:44;;;;;;;8.78;5.80;;;1.10;99.90;;;;;;1850386;77;21144;-79
2022/01/24 00:42:31;;;;;;;8.55;6.00;;;1.10;99.90;;;;;;1852391;77;21077;-78
2022/01/24 00:53:18;;;;;;;8.73;6.08;;;1.00;99.90;;;;;;1852317;77;21090;-79
2022/01/24 00:55:40;;;;;;;10.53;6.35;;;1.00;99.90;;;;;;1850261;77;21552;-79
2022/01/24 00:58:07;;;;;;;8.95;6.47;;;0.90;99.90;;;;;;1853081;77;21172;-78
2022/01/24 01:00:37;;;;;;;9.20;6.65;;;0.90;99.90;;;;;;1851299;76;21514;-78
2022/01/24 01:03:05;;;;;;;9.50;6.30;;;1.00;99.90;;;;;;1851096;77;21102;-78
2022/01/24 01:18:27;;;;;;;10.18;6.50;;;0.60;99.90;;;;;;1850892;77;21090;-78
2022/01/24 01:21:09;;;;;;;8.60;6.42;;;0.70;99.90;;;;;;1850695;77;21074;-78
2022/01/24 01:23:34;;;;;;;8.33;5.72;;;0.60;99.90;;;;;;1852198;76;21161;-79
2022/01/24 01:26:05;;;;;;;10.38;6.47;;;0.50;99.90;;;;;;1826301;77;21089;-78
2022/01/24 01:28:31;;;;;;;10.63;6.60;;;0.60;99.90;;;;;;1850851;76;21152;-80
2022/01/24 01:31:04;;;;;;;10.00;6.15;;;0.50;99.90;;;;;;1851349;77;21509;-80
2022/01/24 01:33:43;;;;;;;9.28;6.08;;;0.40;99.90;;;;;;1850072;76;21074;-79
2022/01/24 01:54:55;;;;;;;9.25;6.62;;;0.30;99.90;;;;;;1853469;77;21155;-79
2022/01/24 01:57:20;;;;;;;10.38;7.22;;;0.30;99.90;;;;;;1848758;77;21085;-78
2022/01/24 01:59:47;;;;;;;10.45;7.20;;;0.20;99.90;;;;;;1851529;76;21139;-80
2022/01/24 02:02:14;;;;;;;7.97;6.12;;;0.30;99.90;;;;;;1852521;76;21156;-79
2022/01/24 02:04:42;;;;;;;10.05;6.87;;;0.30;99.90;;;;;;1851041;77;21486;-79
2022/01/24 02:07:13;;;;;;;11.03;7.70;;;0.30;99.90;;;;;;1851280;77;21502;-78
2022/01/24 02:09:42;;;;;;;12.43;8.08;;;0.30;99.90;;;;;;1850602;77;21459;-78
2022/01/24 02:12:11;;;;;;;11.05;7.08;;;0.30;99.90;;;;;;1850829;76;21089;-79
2022/01/24 02:14:47;;;;;;;11.28;7.10;;;0.20;99.90;;;;;;1850584;76;21173;-79
2022/01/24 02:17:16;;;;;;;10.70;7.65;;;0.30;99.90;;;;;;1849034;77;21086;-79
2022/01/24 02:25:06;;;;;;;10.98;7.90;;;0.30;99.90;;;;;;1850432;77;21490;-79
2022/01/24 02:27:40;;;;;;;12.45;7.62;;;0.30;99.90;;;;;;1849501;76;21156;-79
2022/01/24 02:30:14;;;;;;;11.18;7.83;;;0.10;99.90;;;;;;1847226;77;21290;-79
2022/01/24 02:32:39;;;;;;;12.05;8.30;;;0.00;99.90;;;;;;1849953;77;21062;-79
2022/01/24 02:35:07;;;;;;;9.90;7.33;;;0.10;99.90;;;;;;1851297;77;21526;-78
2022/01/24 02:37:35;;;;;;;14.30;8.18;;;0.00;99.90;;;;;;1850460;76;21200;-78
2022/01/24 02:40:12;;;;;;;12.20;7.87;;;0.00;99.90;;;;;;1850789;77;21455;-78
2022/01/24 02:53:34;;;;;;;15.05;9.05;;;0.10;99.90;;;;;;1852169;76;21086;-77
2022/01/24 02:56:02;;;;;;;16.93;8.55;;;0.20;99.90;;;;;;1851386;76;21090;-79
2022/01/24 02:58:29;;;;;;;21.62;9.58;;;0.20;99.90;;;;;;1850549;77;21082;-78
2022/01/24 03:00:58;;;;;;;14.05;9.58;;;0.20;99.90;;;;;;1852271;77;21113;-78
2022/01/24 03:03:25;;;;;;;15.45;9.65;;;0.10;99.90;;;;;;1852321;77;21490;-79
2022/01/24 03:05:53;;;;;;;13.22;9.40;;;0.10;99.90;;;;;;1851503;76;21494;-79
2022/01/24 03:08:22;;;;;;;23.02;9.50;;;0.10;99.90;;;;;;1853353;76;21196;-78
2022/01/24 03:10:52;;;;;;;16.17;9.40;;;0.10;99.90;;;;;;1850436;76;21097;-78
2022/01/24 03:15:57;;;;;;;12.35;8.80;;;0.00;99.90;;;;;;1851729;76;21159;-78
2022/01/24 03:18:24;;;;;;;13.53;9.38;;;0.10;99.90;;;;;;1851837;76;21144;-79
2022/01/24 03:20:52;;;;;;;12.03;8.40;;;0.10;99.90;;;;;;1851397;77;21525;-78
2022/01/24 03:23:20;;;;;;;13.18;8.70;;;0.10;99.90;;;;;;1850366;76;21230;-78
2022/01/24 03:25:48;;;;;;;17.32;8.78;;;0.00;99.90;;;;;;1851181;76;21455;-78
2022/01/24 03:28:15;;;;;;;12.20;8.43;;;0.00;99.90;;;;;;1850567;76;21559;-77
2022/01/24 03:30:43;;;;;;;11.53;8.00;;;-0.10;99.90;;;;;;1852290;77;21082;-77
2022/01/24 03:33:10;;;;;;;12.73;8.43;;;-0.20;99.90;;;;;;1852061;76;21078;-77
2022/01/24 03:35:40;;;;;;;17.20;8.28;;;-0.20;99.90;;;;;;1854295;76;21536;-78
2022/01/24 03:38:07;;;;;;;11.00;8.53;;;-0.10;99.90;;;;;;1827020;77;21481;-77
2022/01/24 03:40:34;;;;;;;14.93;8.40;;;-0.10;99.90;;;;;;1851226;77;21389;-79
2022/01/24 03:43:01;;;;;;;11.90;8.15;;;0.00;99.90;;;;;;1851375;76;21089;-79
2022/01/24 03:45:42;;;;;;;13.18;8.68;;;0.00;99.90;;;;;;1820152;77;21564;-78
2022/01/24 03:48:11;;;;;;;17.00;8.35;;;0.00;99.90;;;;;;1851605;76;21148;-78
2022/01/24 03:50:36;;;;;;;14.43;8.28;;;0.00;99.90;;;;;;1848546;77;21094;-79
2022/01/24 03:53:04;;;;;;;11.45;8.50;;;0.00;99.90;;;;;;1854147;76;21473;-79
2022/01/24 03:55:33;;;;;;;11.93;8.68;;;0.00;99.90;;;;;;1852270;77;21156;-77
2022/01/24 03:58:02;;;;;;;13.83;8.53;;;0.00;99.90;;;;;;1853046;76;21120;-79
2022/01/24 04:00:31;;;;;;;12.73;8.88;;;-0.10;99.90;;;;;;1852400;76;21147;-78
2022/01/24 04:02:58;;;;;;;11.93;8.48;;;-0.10;99.90;;;;;;1850600;77;21055;-78
2022/01/24 04:05:26;;;;;;;15.03;8.35;;;-0.10;99.90;;;;;;1853126;77;21074;-79
2022/01/24 04:07:53;;;;;;;15.32;9.65;;;-0.20;99.90;;;;;;1851249;77;21078;-79
2022/01/24 04:10:21;;;;;;;10.25;8.48;;;-0.10;99.90;;;;;;1851374;76;21160;-79
2022/01/24 04:12:51;;;;;;;18.02;8.70;;;-0.10;99.90;;;;;;1852963;77;21180;-79
2022/01/24 04:23:40;;;;;;;12.70;9.68;;;-0.10;99.90;;;;;;1771776;79;21107;-77
2022/01/24 04:26:06;;;;;;;15.75;8.80;;;-0.20;99.90;;;;;;1784750;79;21492;-78
2022/01/24 04:28:33;;;;;;;17.40;9.95;;;-0.20;99.90;;;;;;1803749;77;21149;-78
2022/01/24 04:31:00;;;;;;;15.03;9.30;;;-0.20;99.90;;;;;;1852238;76;21086;-78
2022/01/24 04:33:28;;;;;;;17.07;9.80;;;-0.30;99.90;;;;;;1850398;77;21082;-78
2022/01/24 04:35:55;;;;;;;15.63;9.38;;;-0.30;99.90;;;;;;1852229;77;21159;-79
2022/01/24 04:38:23;;;;;;;15.03;10.08;;;-0.20;99.90;;;;;;1850387;77;21144;-79
2022/01/24 04:40:56;;;;;;;12.40;8.93;;;-0.20;99.90;;;;;;1851365;76;21148;-78
2022/01/24 04:43:51;;;;;;;14.10;9.70;;;-0.30;99.90;;;;;;1851093;77;21168;-78
2022/01/24 04:56:40;;;;;;;13.90;9.88;;;-0.20;99.90;;;;;;1850275;77;21226;-77
2022/01/24 04:59:07;;;;;;;;;;;-0.20;99.90;;;;;;1854006;76;21152;-79
2022/01/24 05:01:34;;;;;;;12.33;8.48;;;-0.30;99.90;;;;;;1853217;77;20152;-78
2022/01/24 05:04:03;;;;;;;13.48;8.63;;;-0.30;99.90;;;;;;1852631;77;21502;-78
2022/01/24 05:06:30;;;;;;;13.83;9.35;;;-0.30;99.90;;;;;;1851405;76;21066;-79
2022/01/24 05:08:58;;;;;;;17.30;9.73;;;-0.30;99.90;;;;;;1852415;76;21378;-78
2022/01/24 05:11:37;;;;;;;15.78;8.48;;;-0.30;99.90;;;;;;1827123;77;21147;-78
2022/01/24 05:24:49;;;;;;;12.82;8.93;;;-0.20;99.90;;;;;;1850610;76;21067;-75
2022/01/24 05:27:16;;;;;;;16.00;9.10;;;-0.20;99.90;;;;;;1851232;76;21498;-75
2022/01/24 05:29:44;;;;;;;16.60;9.80;;;-0.20;99.90;;;;;;1850319;76;21090;-74
2022/01/24 05:32:11;;;;;;;12.28;8.10;;;-0.30;99.90;;;;;;1851305;77;21599;-74
2022/01/24 05:34:38;;;;;;;16.82;9.43;;;-0.40;99.90;;;;;;1850307;77;21152;-74
2022/01/24 05:37:07;;;;;;;12.63;8.33;;;-0.30;99.90;;;;;;1851350;77;21082;-75
2022/01/24 05:39:34;;;;;;;15.23;9.93;;;-0.30;99.90;;;;;;1853339;76;21074;-76
2022/01/24 05:42:02;;;;;;;12.40;9.25;;;-0.20;99.90;;;;;;1852263;76;21097;-74
2022/01/24 05:44:29;;;;;;;14.40;9.58;;;-0.30;99.90;;;;;;1852336;77;21167;-76
2022/01/24 05:46:56;;;;;;;14.68;10.30;;;-0.30;99.90;;;;;;1851305;77;21485;-75
2022/01/24 05:49:24;;;;;;;15.68;9.53;;;-0.20;99.90;;;;;;1850446;77;21151;-75
2022/01/24 05:51:51;;;;;;;17.37;10.80;;;-0.20;99.90;;;;;;1851375;77;21463;-75
2022/01/24 05:54:18;;;;;;;20.37;10.15;;;-0.20;99.90;;;;;;1850458;76;21101;-74
2022/01/24 05:56:45;;;;;;;18.35;10.88;;;-0.20;99.90;;;;;;1851180;77;21148;-75
2022/01/24 05:59:13;;;;;;;15.53;10.93;;;-0.10;99.90;;;;;;1850469;76;21168;-74
2022/01/24 06:01:40;;;;;;;13.95;9.08;;;-0.10;99.90;;;;;;1851384;77;21090;-74
2022/01/24 06:04:10;;;;;;;20.12;9.73;;;-0.10;99.90;;;;;;1851433;77;21097;-75
2022/01/24 06:06:36;;;;;;;23.02;11.22;;;0.00;99.90;;;;;;1851210;76;21082;-74
2022/01/24 06:09:04;;;;;;;22.27;10.80;;;0.00;99.90;;;;;;1851166;77;21082;-75
2022/01/24 06:11:31;;;;;;;15.25;10.53;;;0.00;99.90;;;;;;1850681;77;21615;-75
2022/01/24 06:13:59;;;;;;;16.07;9.93;;;0.10;99.90;;;;;;1852353;77;21150;-75
2022/01/24 06:16:26;;;;;;;17.15;9.58;;;0.00;99.90;;;;;;1851435;77;21098;-75
2022/01/24 06:18:53;;;;;;;19.87;10.13;;;0.10;99.90;;;;;;1852202;77;21540;-74
2022/01/24 06:21:21;;;;;;;13.75;9.95;;;0.10;99.90;;;;;;1850485;77;21172;-76
2022/01/24 06:23:48;;;;;;;14.07;9.53;;;0.20;99.90;;;;;;1851379;76;21089;-75
2022/01/24 06:26:20;;;;;;;13.22;9.35;;;0.20;99.90;;;;;;1852375;77;21482;-76
2022/01/24 06:28:49;;;;;;;12.85;9.43;;;0.30;99.90;;;;;;1851134;76;21502;-76
2022/01/24 06:31:16;;;;;;;11.60;8.93;;;0.30;99.90;;;;;;1853260;77;21151;-74
2022/01/24 06:33:43;;;;;;;15.88;10.65;;;0.30;99.90;;;;;;1852258;76;21085;-76
2022/01/24 06:36:11;;;;;;;12.90;9.10;;;0.30;99.90;;;;;;1851286;77;21063;-76
2022/01/24 06:38:38;;;;;;;15.75;10.20;;;0.30;99.90;;;;;;1851138;77;21082;-76
2022/01/24 06:41:05;;;;;;;14.80;10.10;;;0.50;99.90;;;;;;1851895;77;21147;-77
2022/01/24 06:43:33;;;;;;;12.25;8.83;;;0.50;99.90;;;;;;1852257;77;21234;-76
2022/01/24 06:46:01;;;;;;;13.05;9.23;;;0.50;99.90;;;;;;1851183;77;21091;-77
2022/01/24 06:48:28;;;;;;;13.80;9.30;;;0.50;99.90;;;;;;1850234;77;21199;-79
2022/01/24 06:50:56;;;;;;;12.20;9.25;;;0.50;99.90;;;;;;1852132;77;21221;-81
2022/01/24 06:53:23;;;;;;;13.00;8.75;;;0.60;99.90;;;;;;1852227;77;21466;-81
2022/01/24 06:55:50;;;;;;;14.43;9.60;;;0.70;99.90;;;;;;1851279;77;21085;-82
2022/01/24 06:58:18;;;;;;;15.10;9.13;;;0.70;99.90;;;;;;1851186;77;21062;-81
2022/01/24 07:00:45;;;;;;;14.25;9.13;;;0.80;99.90;;;;;;1852154;77;21089;-80
2022/01/24 07:03:13;;;;;;;15.00;8.95;;;0.90;99.90;;;;;;1850373;77;21086;-81
2022/01/24 07:05:40;;;;;;;13.75;9.80;;;0.90;99.90;;;;;;1851176;76;21085;-84
2022/01/24 07:08:07;;;;;;;14.98;9.85;;;0.80;99.90;;;;;;1851210;76;21054;-80
2022/01/24 07:10:35;;;;;;;19.37;11.12;;;0.90;99.90;;;;;;1851219;76;21160;-79
2022/01/24 07:13:02;;;;;;;12.73;9.70;;;0.90;99.90;;;;;;1852835;77;21552;-78
2022/01/24 07:15:37;;;;;;;19.55;11.08;;;1.00;99.90;;;;;;1850884;76;21133;-79
2022/01/24 07:18:14;;;;;;;15.43;10.63;;;1.00;99.90;;;;;;1849679;77;21081;-80
2022/01/24 07:20:29;;;;;;;15.25;10.25;;;1.00;99.90;;;;;;1848716;76;21090;-80
2022/01/24 07:22:57;;;;;;;12.45;9.43;;;1.00;99.90;;;;;;1851041;77;21086;-81
2022/01/24 07:25:26;;;;;;;16.93;10.45;;;1.10;99.90;;;;;;1852112;77;21082;-83
2022/01/24 07:27:54;;;;;;;15.50;10.05;;;1.10;99.90;;;;;;1850184;76;21494;-80
2022/01/24 07:30:21;;;;;;;18.12;9.55;;;1.10;99.90;;;;;;1850210;76;21165;-82
2022/01/24 07:32:48;;;;;;;18.60;9.85;;;1.20;99.90;;;;;;1852281;77;21438;-79
2022/01/24 07:35:15;;;;;;;13.13;8.85;;;1.30;99.90;;;;;;1851304;77;21137;-82
2022/01/24 07:37:43;;;;;;;14.93;9.68;;;1.30;99.90;;;;;;1851182;77;21067;-81
2022/01/24 07:40:13;;;;;;;15.65;9.68;;;1.40;99.90;;;;;;1852221;77;21059;-81
2022/01/24 07:43:09;;;;;;;23.00;10.85;;;1.30;99.90;;;;;;1852404;77;21090;-85
2022/01/24 07:45:26;;;;;;;20.45;9.75;;;1.40;99.90;;;;;;1850909;76;21230;-86
2022/01/24 07:47:55;;;;;;;15.48;10.23;;;1.40;99.90;;;;;;1851276;76;21301;-82
2022/01/24 07:50:23;;;;;;;17.50;10.43;;;1.40;99.90;;;;;;1851418;77;21094;-80
2022/01/24 07:52:51;;;;;;;42.83;10.85;;;1.30;99.90;;;;;;1852294;77;21086;-83
2022/01/24 07:55:20;;;;;;;16.10;10.45;;;1.30;99.90;;;;;;1852319;77;21078;-83
2022/01/24 07:57:47;;;;;;;30.25;10.78;;;1.30;99.90;;;;;;1850353;77;21139;-84
2022/01/24 08:00:14;;;;;;;24.18;11.10;;;1.30;99.90;;;;;;1850401;77;21207;-85
2022/01/24 08:02:42;;;;;;;16.80;10.85;;;1.40;99.90;;;;;;1850309;76;21536;-72
2022/01/24 08:05:09;;;;;;;15.30;9.18;;;1.50;99.90;;;;;;1852215;77;21234;-73
2022/01/24 08:07:37;;;;;;;14.63;9.93;;;1.50;99.90;;;;;;1850307;77;21094;-73
2022/01/24 08:10:05;;;;;;;19.42;10.72;;;1.50;99.90;;;;;;1850277;77;21151;-74
2022/01/24 08:12:34;;;;;;;13.25;9.20;;;1.60;99.90;;;;;;1850887;77;21151;-73
2022/01/24 08:15:03;;;;;;;17.42;10.13;;;1.70;99.90;;;;;;1854519;77;21173;-74
2022/01/24 08:17:31;;;;;;;15.60;9.88;;;1.90;99.90;;;;;;1851305;77;21528;-75
2022/01/24 08:19:58;;;;;;;16.50;10.95;;;1.90;99.90;;;;;;1853939;76;21091;-74
2022/01/24 08:22:26;;;;;;;23.75;11.03;;;1.80;99.90;;;;;;1852167;77;21098;-74
2022/01/24 08:24:53;;;;;;;18.73;10.72;;;1.70;99.90;;;;;;1852319;76;21558;-74
2022/01/24 08:27:22;;;;;;;14.60;10.43;;;1.60;99.90;;;;;;1851451;76;21098;-73
2022/01/24 08:29:50;;;;;;;14.98;10.88;;;1.60;99.90;;;;;;1851392;77;21103;-73
2022/01/24 08:32:18;;;;;;;22.77;11.60;;;1.70;99.90;;;;;;1850452;76;21241;-73
2022/01/24 08:34:45;;;;;;;26.37;11.83;;;1.70;99.90;;;;;;1850477;77;21542;-74
2022/01/24 08:37:12;;;;;;;19.45;11.43;;;1.70;99.90;;;;;;1852162;77;21490;-73
2022/01/24 08:39:40;;;;;;;17.57;9.80;;;1.80;99.90;;;;;;1851313;77;21058;-73
2022/01/24 08:42:18;;;;;;;17.05;11.40;;;2.00;99.90;;;;;;1850462;77;21171;-73
2022/01/24 08:47:38;;;;;;;18.32;10.88;;;2.20;99.90;;;;;;1850410;76;21105;-73
2022/01/24 08:50:04;;;;;;;18.30;10.35;;;2.20;99.90;;;;;;1851344;77;21177;-74
2022/01/24 08:52:31;;;;;;;17.10;9.98;;;2.30;99.90;;;;;;1852241;77;21114;-74
2022/01/24 08:54:59;;;;;;;20.48;11.10;;;2.50;99.90;;;;;;1851287;77;21086;-75
2022/01/24 08:57:26;;;;;;;16.15;11.38;;;2.70;99.90;;;;;;1851427;77;21089;-75
2022/01/24 08:59:54;;;;;;;21.50;11.25;;;2.70;99.90;;;;;;1851234;77;21085;-74
2022/01/24 09:02:22;;;;;;;14.78;10.75;;;2.80;99.90;;;;;;1850684;77;21518;-74
2022/01/24 09:04:50;;;;;;;14.78;10.15;;;3.00;99.90;;;;;;1852230;76;21163;-75
2022/01/24 09:07:19;;;;;;;18.45;11.05;;;3.30;99.90;;;;;;1851857;77;21089;-74
2022/01/24 09:09:46;;;;;;;24.27;11.30;;;3.30;99.90;;;;;;1851280;77;21097;-75
2022/01/24 09:12:14;;;;;;;21.90;11.45;;;3.20;99.90;;;;;;1851145;76;21094;-74
2022/01/24 09:14:43;;;;;;;18.57;11.63;;;3.30;99.90;;;;;;1850634;77;21082;-73
2022/01/24 09:17:12;;;;;;;14.53;11.20;;;3.60;99.90;;;;;;1853623;77;21155;-74
2022/01/24 09:19:39;;;;;;;16.67;10.68;;;3.90;99.90;;;;;;1852452;76;21063;-74
2022/01/24 09:22:06;;;;;;;15.08;10.48;;;4.00;99.90;;;;;;1851436;76;21077;-75
2022/01/24 09:24:34;;;;;;;16.10;10.20;;;4.10;99.90;;;;;;1852358;77;21159;-76
2022/01/24 09:27:01;;;;;;;13.43;9.95;;;4.30;99.90;;;;;;1851548;77;21081;-76
2022/01/24 09:29:28;;;;;;;17.05;10.23;;;4.30;99.90;;;;;;1851524;76;21086;-74
2022/01/24 09:31:56;;;;;;;13.10;9.80;;;4.30;99.90;;;;;;1851396;77;21198;-75
2022/01/24 09:34:23;;;;;;;13.40;10.23;;;4.40;99.90;;;;;;1850538;77;21148;-77
2022/01/24 09:36:50;;;;;;;13.78;9.43;;;4.80;99.90;;;;;;1852330;77;21086;-76
2022/01/24 09:39:18;;;;;;;15.23;9.23;;;4.80;99.90;;;;;;1850429;77;21082;-75
2022/01/24 09:41:46;;;;;;;13.85;9.45;;;5.00;99.90;;;;;;1851396;77;21137;-76
2022/01/24 09:44:13;;;;;;;13.88;9.73;;;5.50;99.90;;;;;;1851485;76;21160;-76
2022/01/24 09:46:41;;;;;;;15.58;8.70;;;5.90;99.90;;;;;;1851340;77;21113;-75
2022/01/24 09:49:08;;;;;;;18.85;9.38;;;6.20;99.90;;;;;;1850560;76;21094;-75
2022/01/24 09:51:37;;;;;;;11.05;7.85;;;6.30;99.90;;;;;;1851284;77;21470;-74
2022/01/24 09:54:08;;;;;;;14.95;8.98;;;6.40;99.90;;;;;;1851196;76;21090;-76
2022/01/24 09:56:35;;;;;;;13.65;8.88;;;6.10;99.90;;;;;;1852319;77;21081;-75
2022/01/24 09:59:03;;;;;;;14.68;8.18;;;5.70;99.90;;;;;;1850529;77;21485;-76
2022/01/24 10:01:32;;;;;;;10.95;7.92;;;5.80;99.90;;;;;;1850498;77;21093;-75
2022/01/24 10:04:11;;;;;;;11.55;8.43;;;5.60;99.90;;;;;;1851534;77;21139;-75
2022/01/24 10:07:02;;;;;;;14.58;7.90;;;5.90;99.90;;;;;;1850019;76;21489;-76
2022/01/24 10:09:33;;;;;;;14.30;8.20;;;6.40;99.90;;;;;;1852994;77;21144;-74
2022/01/24 10:12:29;;;;;;;10.05;7.53;;;6.60;99.90;;;;;;1847474;77;21564;-75
2022/01/24 10:17:34;;;;;;;13.95;7.10;;;7.40;99.90;;;;;;1851556;76;21581;-75
2022/01/24 10:20:16;;;;;;;11.40;7.10;;;7.60;99.90;;;;;;1852394;76;21155;-75
2022/01/24 10:22:43;;;;;;;9.58;6.28;;;7.70;99.90;;;;;;1853219;76;21062;-74
2022/01/24 10:25:10;;;;;;;10.23;6.05;;;8.00;99.90;;;;;;1850427;77;21497;-76
2022/01/24 10:27:38;;;;;;;10.90;6.33;;;8.20;99.90;;;;;;1851612;77;21097;-76
2022/01/24 10:30:12;;;;;;;7.53;4.58;;;7.70;99.90;;;;;;1802475;77;21144;-75
2022/01/24 10:32:40;;;;;;;4.80;4.30;;;7.20;99.90;;;;;;1850256;77;21093;-76
2022/01/24 10:35:42;;;;;;;7.17;4.65;;;7.60;99.90;;;;;;1850117;77;21502;-75
2022/01/24 10:38:54;;;;;;;6.45;3.67;;;7.80;99.90;;;;;;1852200;77;21506;-76
2022/01/24 10:41:23;;;;;;;3.25;2.70;;;7.80;99.90;;;;;;1847115;76;21129;-77
2022/01/24 10:43:48;;;;;;;3.50;3.20;;;8.20;99.90;;;;;;1850171;76;21081;-75
2022/01/24 10:46:24;;;;;;;3.35;3.00;;;8.30;99.90;;;;;;1853437;77;21179;-75
2022/01/24 10:49:03;;;;;;;8.85;3.42;;;8.60;99.90;;;;;;1851865;77;21148;-77
2022/01/24 10:51:39;;;;;;;3.50;2.72;;;8.70;99.90;;;;;;1853758;76;21125;-74
2022/01/24 10:54:07;;;;;;;6.53;2.72;;;8.90;99.90;;;;;;1852570;77;21066;-75
2022/01/24 10:56:36;;;;;;;9.78;2.98;;;8.90;99.90;;;;;;1852217;76;21154;-74
2022/01/24 10:59:25;;;;;;;3.30;2.33;;;8.70;99.90;;;;;;1850762;77;21086;-75
2022/01/24 11:01:54;;;;;;;5.55;3.02;;;8.50;99.90;;;;;;1850579;77;21071;-78
2022/01/24 11:04:23;;;;;;;6.53;3.10;;;8.90;99.90;;;;;;1850677;76;21478;-75
2022/01/24 11:06:53;;;;;;;4.28;3.08;;;9.00;99.90;;;;;;1852686;77;21524;-76
2022/01/24 11:09:28;;;;;;;4.00;2.50;;;9.30;99.90;;;;;;1853475;77;21526;-78
2022/01/24 11:12:05;;;;;;;2.42;2.22;;;9.50;99.90;;;;;;1850738;77;21069;-76
2022/01/24 11:14:32;;;;;;;5.00;2.30;;;9.30;99.90;;;;;;1853027;77;21197;-80
2022/01/24 11:16:59;;;;;;;1.90;1.70;;;9.20;99.90;;;;;;1850781;76;21089;-79
2022/01/24 11:19:36;;;;;;;2.35;2.15;;;9.10;99.90;;;;;;1852588;77;21090;-82
2022/01/24 11:22:01;;;;;;;5.75;2.72;;;9.30;99.90;;;;;;1849736;77;21098;-82
2022/01/24 11:24:41;;;;;;;4.85;2.20;;;9.10;99.90;;;;;;1852020;77;21086;-82
2022/01/24 11:27:07;;;;;;;4.12;2.10;;;9.20;99.90;;;;;;1850158;77;21101;-82
2022/01/24 11:29:34;;;;;;;5.97;2.20;;;9.30;99.90;;;;;;1852894;77;21089;-81
2022/01/24 11:32:08;;;;;;;2.40;2.20;;;9.40;99.90;;;;;;1853816;76;21140;-82
2022/01/24 11:34:37;;;;;;;4.33;2.33;;;9.60;99.90;;;;;;1852270;77;21517;-81
2022/01/24 11:37:05;;;;;;;7.58;2.50;;;9.30;99.90;;;;;;1851040;76;21477;-81
2022/01/24 11:39:33;;;;;;;7.80;2.70;;;9.40;99.90;;;;;;1852822;77;21156;-82
2022/01/24 11:42:02;;;;;;;3.10;2.37;;;9.10;99.90;;;;;;1852000;77;21063;-82
2022/01/24 11:44:46;;;;;;;5.78;2.22;;;9.90;99.90;;;;;;1851054;76;21563;-81
2022/01/24 11:47:31;;;;;;;3.52;1.90;;;10.20;99.90;;;;;;1819920;77;21067;-80
2022/01/24 11:49:59;;;;;;;2.72;1.95;;;9.20;99.90;;;;;;1827072;77;21148;-81
2022/01/24 11:52:31;;;;;;;2.85;2.15;;;10.10;99.90;;;;;;1851671;77;21078;-81
2022/01/24 11:55:15;;;;;;;4.05;2.10;;;10.30;99.90;;;;;;1851608;76;21465;-82
2022/01/24 11:57:47;;;;;;;10.28;2.45;;;10.40;99.90;;;;;;1848282;77;21097;-81
2022/01/24 12:00:26;;;;;;;2.30;2.10;;;10.40;99.90;;;;;;1850416;77;21071;-81
2022/01/24 12:02:56;;;;;;;2.45;1.75;;;10.70;99.90;;;;;;1852326;77;21160;-82
2022/01/24 12:05:33;;;;;;;10.88;1.87;;;10.70;99.90;;;;;;1853079;76;21078;-81
2022/01/24 12:08:04;;;;;;;3.85;2.35;;;10.40;99.90;;;;;;1839414;76;21105;-80
2022/01/24 12:10:37;;;;;;;2.85;2.00;;;10.60;99.90;;;;;;1850521;77;21066;-80
2022/01/24 12:13:13;;;;;;;6.90;2.10;;;10.90;99.90;;;;;;1851225;76;21113;-80
2022/01/24 12:15:41;;;;;;;2.40;2.00;;;10.70;99.90;;;;;;1850663;77;21234;-80
2022/01/24 12:18:12;;;;;;;3.37;1.92;;;10.40;99.90;;;;;;1850311;77;21143;-79
2022/01/24 12:20:43;;;;;;;2.92;2.22;;;10.50;99.90;;;;;;1852325;77;21597;-79
2022/01/24 12:23:27;;;;;;;3.70;2.35;;;10.80;99.90;;;;;;1851453;77;21082;-79
2022/01/24 12:26:07;;;;;;;2.05;1.80;;;10.80;99.90;;;;;;1850873;76;21148;-81
2022/01/24 12:28:49;;;;;;;1.83;1.73;;;11.60;99.90;;;;;;1852479;77;21615;-79
2022/01/24 12:31:34;;;;;;;2.72;2.08;;;12.00;99.90;;;;;;1851972;77;21098;-80
2022/01/24 12:34:08;;;;;;;2.30;1.85;;;12.10;99.90;;;;;;1852756;76;21089;-81
2022/01/24 12:39:16;;;;;;;2.05;1.72;;;11.40;99.90;;;;;;1852250;77;21491;-75
2022/01/24 12:41:51;;;;;;;3.83;1.90;;;11.20;99.90;;;;;;1852005;77;21090;-79
2022/01/24 12:47:02;;;;;;;2.95;1.90;;;11.80;99.90;;;;;;1851658;77;21119;-81
2022/01/24 12:49:29;;;;;;;2.27;1.85;;;11.20;99.90;;;;;;1851848;77;21152;-82
2022/01/24 12:52:08;;;;;;;2.55;1.82;;;10.70;99.90;;;;;;1852116;77;21067;-82
2022/01/24 12:54:41;;;;;;;3.25;2.00;;;10.80;99.90;;;;;;1853424;76;21476;-81
2022/01/24 12:57:10;;;;;;;3.17;1.92;;;11.20;99.90;;;;;;1851609;76;21522;-78
2022/01/24 12:59:39;;;;;;;2.62;1.85;;;11.50;99.90;;;;;;1851354;77;21093;-78
2022/01/24 13:02:09;;;;;;;4.05;2.08;;;11.90;99.90;;;;;;1851094;76;21221;-79
2022/01/24 13:04:39;;;;;;;3.05;2.40;;;12.10;99.90;;;;;;1852972;76;21224;-79
2022/01/24 13:07:09;;;;;;;2.77;1.85;;;11.70;99.90;;;;;;1816333;77;21081;-80
2022/01/24 13:09:36;;;;;;;3.47;2.10;;;11.90;99.90;;;;;;1851916;77;21094;-83
2022/01/24 13:12:07;;;;;;;4.08;2.22;;;12.10;99.90;;;;;;1851701;77;21098;-83
2022/01/24 13:14:45;;;;;;;5.97;2.27;;;12.40;99.90;;;;;;1851051;77;21152;-87
2022/01/24 13:23:07;;;;;;;5.83;2.37;;;12.40;99.90;;;;;;1851183;76;21870;-80
2022/01/24 13:25:37;;;;;;;3.60;2.15;;;11.70;99.90;;;;;;1849322;75;21157;-80
2022/01/24 13:28:11;;;;;;;2.35;2.02;;;11.70;99.90;;;;;;1847180;76;21204;-80
2022/01/24 13:30:45;;;;;;;2.90;2.00;;;11.90;99.90;;;;;;1844199;76;21099;-80
2022/01/24 13:33:19;;;;;;;4.50;2.10;;;12.00;99.90;;;;;;1847158;76;21099;-79
2022/01/24 13:35:49;;;;;;;4.00;2.17;;;11.80;99.90;;;;;;1845109;76;21104;-86
2022/01/24 13:38:18;;;;;;;3.25;2.10;;;12.50;99.90;;;;;;1848195;76;21247;-82
2022/01/24 13:40:59;;;;;;;2.47;1.95;;;12.60;99.90;;;;;;1843735;76;21089;-82
2022/01/24 13:43:47;;;;;;;4.17;3.00;;;12.50;99.90;;;;;;1844002;76;21563;-82
2022/01/24 13:46:22;;;;;;;6.47;2.47;;;12.70;99.90;;;;;;1845290;76;21195;-83
2022/01/24 13:48:56;;;;;;;2.35;2.15;;;12.30;99.90;;;;;;1842495;76;21177;-80
2022/01/24 13:51:35;;;;;;;8.48;2.40;;;12.50;99.90;;;;;;1842865;76;21528;-85
2022/01/24 13:54:00;;;;;;;2.77;2.02;;;12.40;99.90;;;;;;1845301;76;21169;-79
2022/01/24 13:56:36;;;;;;;5.75;1.80;;;12.50;99.90;;;;;;1845053;76;21228;-79
2022/01/24 13:59:06;;;;;;;6.20;2.42;;;12.10;99.90;;;;;;1845839;76;21096;-80
2022/01/24 14:01:35;;;;;;;2.35;2.15;;;12.00;99.90;;;;;;1844162;76;21095;-80
2022/01/24 14:04:05;;;;;;;2.40;2.02;;;12.10;99.90;;;;;;1846322;76;21156;-81
2022/01/24 14:06:34;;;;;;;5.15;2.15;;;12.60;99.90;;;;;;1845293;76;21080;-80
2022/01/24 14:09:08;;;;;;;7.87;2.75;;;13.30;99.90;;;;;;1842820;76;21724;-79
2022/01/24 14:11:41;;;;;;;5.37;2.40;;;13.10;99.90;;;;;;1846970;76;21461;-78
2022/01/24 14:14:12;;;;;;;3.65;2.22;;;13.00;99.90;;;;;;1845888;76;21153;-78
2022/01/24 14:16:46;;;;;;;3.90;2.37;;;13.40;99.90;;;;;;1843835;76;21203;-77
2022/01/24 14:19:08;;;;;;;4.65;2.15;;;13.40;99.90;;;;;;1844435;76;21464;-81
2022/01/24 14:21:35;;;;;;;4.33;2.42;;;13.00;99.90;;;;;;1844361;76;21087;-81
2022/01/24 14:24:02;;;;;;;5.67;2.30;;;13.10;99.90;;;;;;1843890;76;21453;-82
2022/01/24 14:26:31;;;;;;;4.83;2.55;;;13.20;99.90;;;;;;1844402;76;21484;-79
2022/01/24 14:29:12;;;;;;;2.50;2.20;;;13.20;99.90;;;;;;1848724;76;21169;-79
2022/01/24 14:31:40;;;;;;;;;;;13.20;99.90;;;;;;1849917;76;21072;-85
2022/01/24 14:34:11;;;;;;;4.10;1.80;;;12.70;99.90;;;;;;1845616;76;20146;-81
2022/01/24 14:36:40;;;;;;;5.30;2.50;;;12.70;99.90;;;;;;1843887;76;21471;-78
2022/01/24 14:39:09;;;;;;;3.33;2.50;;;12.70;99.90;;;;;;1839777;77;21085;-83
2022/01/24 14:41:45;;;;;;;8.33;2.42;;;11.90;99.90;;;;;;1817127;77;21159;-80
2022/01/24 14:46:54;;;;;;;4.55;2.62;;;12.70;99.90;;;;;;1847688;76;21100;-77
2022/01/24 14:49:24;;;;;;;3.90;2.42;;;12.70;99.90;;;;;;1843839;76;21167;-75
2022/01/24 14:51:54;;;;;;;6.60;2.62;;;12.60;99.90;;;;;;1847345;76;21248;-76
2022/01/24 14:54:23;;;;;;;2.92;2.65;;;12.60;99.90;;;;;;1844913;76;21157;-75
2022/01/24 14:56:52;;;;;;;4.37;2.58;;;12.40;99.90;;;;;;1844689;76;21068;-76
2022/01/24 14:59:20;;;;;;;3.40;2.33;;;12.20;99.90;;;;;;1841506;76;21085;-76
2022/01/24 15:01:48;;;;;;;2.65;2.10;;;12.60;99.90;;;;;;1846217;76;21441;-79